createdAt,value
2023-01-19T21:27:29.367Z,36.91
2023-01-19T21:29:55.784Z,34.69
2023-01-19T21:32:22.183Z,33.13
2023-01-19T21:34:48.611Z,32.95
2023-01-19T21:37:14.990Z,31.26
2023-01-19T21:39:41.432Z,30.41
2023-01-19T21:42:07.828Z,29.88
2023-01-19T21:44:34.210Z,29.74
2023-01-19T21:47:00.625Z,28.76
2023-01-19T21:49:27.026Z,27.80
2023-01-19T21:51:53.408Z,27.17
2023-01-19T21:54:19.804Z,26.71
2023-01-19T21:56:46.180Z,25.27
2023-01-19T21:59:12.570Z,25.29
2023-01-19T22:01:39.079Z,25.29
2023-01-19T22:04:05.486Z,23.67
2023-01-19T22:06:31.893Z,23.28
2023-01-19T22:08:58.370Z,22.67
2023-01-19T22:11:24.817Z,22.12
2023-01-19T22:13:51.206Z,21.62
2023-01-19T22:16:17.603Z,21.75
2023-01-19T22:18:44.051Z,21.02
2023-01-19T22:21:10.473Z,20.83
2023-01-19T22:23:36.858Z,20.69
2023-01-19T22:26:03.259Z,20.30
2023-01-19T22:28:29.673Z,19.93
2023-01-19T22:30:56.167Z,19.50
2023-01-19T22:33:22.644Z,18.53
2023-01-19T22:35:49.051Z,18.27
2023-01-19T22:38:15.449Z,17.87
2023-01-19T22:40:41.840Z,17.91
2023-01-19T22:43:08.243Z,17.34
2023-01-19T22:45:34.629Z,17.51
2023-01-19T22:48:01.029Z,16.42
2023-01-19T22:50:27.444Z,16.37
2023-01-19T22:52:53.841Z,16.07
2023-01-19T22:55:20.218Z,15.12
2023-01-19T22:57:46.603Z,15.45
2023-01-19T23:00:13.012Z,15.33
2023-01-19T23:02:39.414Z,14.87
2023-01-19T23:05:05.817Z,15.07
2023-01-19T23:07:32.218Z,14.03
2023-01-19T23:09:58.625Z,13.86
2023-01-19T23:12:25.028Z,13.78
2023-01-19T23:14:51.432Z,13.71
2023-01-19T23:17:17.841Z,13.55
2023-01-19T23:19:44.231Z,12.96
2023-01-19T23:22:10.623Z,12.40
2023-01-19T23:24:37.024Z,13.25
2023-01-19T23:27:03.421Z,13.20
2023-01-19T23:29:29.797Z,12.46
2023-01-19T23:31:56.196Z,12.82
2023-01-19T23:34:22.587Z,11.79
2023-01-19T23:36:48.960Z,11.60
2023-01-19T23:39:15.359Z,11.25
2023-01-19T23:41:41.770Z,11.37
2023-01-19T23:44:08.203Z,10.83
2023-01-19T23:46:34.637Z,10.84
2023-01-19T23:49:01.057Z,11.02
2023-01-19T23:51:27.478Z,10.73
2023-01-19T23:53:53.856Z,10.88
2023-01-19T23:56:20.402Z,10.65
2023-01-19T23:58:46.807Z,10.43
